Time;durP1;ratioP1;P1;durP2;ratioP2;P2;SDS_P1;SDS_P2;PMS_P1;PMS_P2;Temp;Humidity;BMP_temperature;BMP_pressure;BME280_temperature;BME280_humidity;BME280_pressure;Samples;Min_cycle;Max_cycle;Signal;HPM_P1;HPM_P2
2022/10/28 00:01:34;;;;;;;10.73;4.20;;;10.70;99.90;;;;;;4788379;29;20066;-74
2022/10/28 00:04:01;;;;;;;13.93;4.00;;;10.70;99.90;;;;;;4788212;29;20166;-74
2022/10/28 00:06:30;;;;;;;15.55;4.18;;;10.70;99.90;;;;;;4787680;29;20055;-74
2022/10/28 00:08:58;;;;;;;18.58;5.03;;;10.70;99.90;;;;;;4788867;29;20078;-75
2022/10/28 00:11:27;;;;;;;21.98;4.57;;;10.70;99.90;;;;;;4817267;29;20161;-75
2022/10/28 00:13:55;;;;;;;22.25;4.55;;;10.70;99.90;;;;;;4801994;29;20116;-75
2022/10/28 00:16:24;;;;;;;18.48;4.40;;;10.80;99.90;;;;;;4786403;30;20138;-74
2022/10/28 00:18:53;;;;;;;17.88;4.63;;;10.80;99.90;;;;;;4817429;29;20055;-74
2022/10/28 00:21:23;;;;;;;9.75;4.10;;;10.80;99.90;;;;;;4787382;29;20138;-73
2022/10/28 00:23:50;;;;;;;10.80;4.28;;;10.80;99.90;;;;;;4788009;29;20065;-74
2022/10/28 00:26:19;;;;;;;7.00;4.60;;;10.80;99.90;;;;;;4788500;29;20513;-74
2022/10/28 00:28:48;;;;;;;7.95;4.43;;;10.70;99.90;;;;;;4783532;29;20576;-74
2022/10/28 00:31:17;;;;;;;10.60;5.40;;;10.70;99.90;;;;;;4811928;29;20586;-74
2022/10/28 00:33:45;;;;;;;8.48;4.72;;;10.80;99.90;;;;;;4787311;29;20051;-74
2022/10/28 00:36:15;;;;;;;10.35;5.07;;;10.80;99.90;;;;;;4788564;29;20062;-73
2022/10/28 00:38:44;;;;;;;13.85;6.18;;;10.80;99.90;;;;;;4771920;30;20437;-73
2022/10/28 00:41:13;;;;;;;13.73;5.30;;;10.80;99.90;;;;;;4788590;30;20055;-74
2022/10/28 00:43:43;;;;;;;13.13;5.45;;;10.80;99.90;;;;;;4756324;30;20556;-73
2022/10/28 00:46:30;;;;;;;16.35;6.82;;;10.90;99.90;;;;;;4787848;29;20051;-73
2022/10/28 00:49:01;;;;;;;13.73;5.88;;;10.90;99.90;;;;;;4787685;29;20113;-73
2022/10/28 00:51:32;;;;;;;10.35;5.90;;;10.90;99.90;;;;;;4800762;29;20432;-73
2022/10/28 00:54:00;;;;;;;13.88;6.38;;;10.90;99.90;;;;;;4801032;29;20122;-73
2022/10/28 00:56:32;;;;;;;22.00;6.88;;;11.00;99.90;;;;;;4787475;29;20058;-72
2022/10/28 00:59:02;;;;;;;18.15;7.55;;;11.00;99.90;;;;;;4798675;29;20093;-75
2022/10/28 01:01:29;;;;;;;18.17;7.15;;;11.00;99.90;;;;;;4789768;29;20059;-75
2022/10/28 01:03:57;;;;;;;14.55;7.32;;;11.00;99.90;;;;;;4787983;30;20054;-74
2022/10/28 01:06:27;;;;;;;16.52;7.45;;;11.00;99.90;;;;;;4787326;29;20142;-74
2022/10/28 01:08:55;;;;;;;14.35;6.38;;;11.00;99.90;;;;;;4785398;30;20055;-75
2022/10/28 01:11:50;;;;;;;14.18;6.05;;;11.00;99.90;;;;;;4786150;30;20043;-74
2022/10/28 01:14:25;;;;;;;8.88;6.05;;;11.10;99.90;;;;;;4787525;29;20070;-74
2022/10/28 01:17:06;;;;;;;11.43;6.13;;;11.10;99.90;;;;;;4785879;30;20051;-76
2022/10/28 01:20:10;;;;;;;7.07;6.30;;;11.10;99.90;;;;;;4786579;29;20083;-75
2022/10/28 01:22:43;;;;;;;10.20;6.43;;;11.10;99.90;;;;;;4762787;30;20455;-75
2022/10/28 01:25:29;;;;;;;17.70;6.97;;;11.10;99.90;;;;;;4784585;29;20083;-75
2022/10/28 01:28:08;;;;;;;17.20;7.70;;;11.10;99.90;;;;;;4781422;30;20059;-74
2022/10/28 01:30:57;;;;;;;23.55;7.90;;;11.10;99.90;;;;;;4787191;29;20105;-75
2022/10/28 01:33:28;;;;;;;20.92;7.20;;;11.20;99.90;;;;;;4815720;29;20489;-74
2022/10/28 01:36:02;;;;;;;16.92;7.20;;;11.20;99.90;;;;;;4786310;30;20058;-74
2022/10/28 01:38:36;;;;;;;9.70;5.47;;;11.20;99.90;;;;;;4782604;30;20154;-74
2022/10/28 01:41:11;;;;;;;13.48;6.65;;;11.20;99.90;;;;;;4802217;29;20437;-74
2022/10/28 01:43:46;;;;;;;14.73;7.30;;;11.20;99.90;;;;;;4787267;29;20055;-75
2022/10/28 01:46:20;;;;;;;12.70;6.35;;;11.30;99.90;;;;;;4799627;29;20074;-74
2022/10/28 01:48:52;;;;;;;18.73;6.82;;;11.30;99.90;;;;;;4787062;29;20047;-75
2022/10/28 01:51:26;;;;;;;27.58;7.45;;;11.30;99.90;;;;;;4786897;30;20059;-74
2022/10/28 01:53:56;;;;;;;22.50;7.20;;;11.40;99.90;;;;;;4786785;29;20059;-74
2022/10/28 01:56:27;;;;;;;21.58;7.55;;;11.40;99.90;;;;;;4799352;29;20437;-74
2022/10/28 01:58:57;;;;;;;22.30;7.15;;;11.40;99.90;;;;;;4785186;30;20573;-74
2022/10/28 02:01:27;;;;;;;25.65;7.97;;;11.40;99.90;;;;;;4815491;29;20125;-75
2022/10/28 02:03:55;;;;;;;28.10;7.60;;;11.40;99.90;;;;;;4788020;29;20067;-74
2022/10/28 02:06:25;;;;;;;20.35;6.95;;;11.40;99.90;;;;;;4786181;30;20592;-75
2022/10/28 02:09:13;;;;;;;16.38;6.63;;;11.40;99.90;;;;;;4786621;29;20789;-74
2022/10/28 02:12:03;;;;;;;19.63;7.60;;;11.50;99.90;;;;;;4799983;29;20488;-75
2022/10/28 02:14:47;;;;;;;23.67;6.55;;;11.50;99.90;;;;;;4786036;30;20489;-73
2022/10/28 02:17:24;;;;;;;18.05;5.78;;;11.50;99.90;;;;;;4801118;29;20074;-79
2022/10/28 02:20:00;;;;;;;14.60;6.25;;;11.50;99.90;;;;;;4801388;29;20062;-79
2022/10/28 02:22:32;;;;;;;15.73;6.50;;;11.60;99.90;;;;;;4785653;29;20059;-79
2022/10/28 02:25:08;;;;;;;14.27;7.47;;;11.60;99.90;;;;;;4816567;29;20055;-79
2022/10/28 02:27:43;;;;;;;14.98;6.63;;;11.60;99.90;;;;;;4785254;30;20437;-77
2022/10/28 02:30:15;;;;;;;9.52;5.50;;;11.60;99.90;;;;;;4800392;29;20108;-78
2022/10/28 02:32:50;;;;;;;18.58;6.50;;;11.60;99.90;;;;;;4779616;29;20082;-79
2022/10/28 02:35:22;;;;;;;11.30;6.25;;;11.60;99.90;;;;;;4785324;30;20116;-78
2022/10/28 02:37:52;;;;;;;9.27;6.73;;;11.60;99.90;;;;;;4785086;30;20058;-78
2022/10/28 02:40:22;;;;;;;9.70;6.50;;;11.60;99.90;;;;;;4785620;29;20444;-78
2022/10/28 02:42:52;;;;;;;15.38;6.30;;;11.60;99.90;;;;;;4776021;29;20055;-78
2022/10/28 02:45:25;;;;;;;9.02;5.90;;;11.60;99.90;;;;;;4794034;29;20060;-77
2022/10/28 02:47:57;;;;;;;15.13;5.85;;;11.60;99.90;;;;;;4785902;30;20059;-77
2022/10/28 02:50:33;;;;;;;8.93;5.78;;;11.60;99.90;;;;;;4766088;30;20105;-74
2022/10/28 02:53:04;;;;;;;10.25;6.43;;;11.60;99.90;;;;;;4812607;29;20047;-73
2022/10/28 02:55:38;;;;;;;7.00;6.28;;;11.60;99.90;;;;;;4786138;29;20059;-74
2022/10/28 02:58:06;;;;;;;8.98;5.75;;;11.60;99.90;;;;;;4813167;29;20055;-73
2022/10/28 03:00:33;;;;;;;6.68;5.97;;;11.60;99.90;;;;;;4783718;30;20047;-73
2022/10/28 03:03:02;;;;;;;8.45;5.85;;;11.50;99.90;;;;;;4782239;30;20047;-73
2022/10/28 03:05:29;;;;;;;6.80;5.32;;;11.60;99.90;;;;;;4784071;30;20059;-73
2022/10/28 03:07:56;;;;;;;9.63;6.35;;;11.60;99.90;;;;;;4787278;29;20058;-74
2022/10/28 03:10:23;;;;;;;12.80;7.03;;;11.60;99.90;;;;;;4814403;29;20479;-74
2022/10/28 03:12:50;;;;;;;11.88;6.20;;;11.60;99.90;;;;;;4782729;29;20053;-74
2022/10/28 03:15:18;;;;;;;9.88;6.13;;;11.60;99.90;;;;;;4785910;30;20062;-75
2022/10/28 03:17:45;;;;;;;9.35;6.47;;;11.60;99.90;;;;;;4812669;29;20062;-75
2022/10/28 03:20:13;;;;;;;9.45;6.15;;;11.60;99.90;;;;;;4764421;30;20365;-75
2022/10/28 03:22:43;;;;;;;11.65;6.85;;;11.60;99.90;;;;;;4795833;29;20116;-75
2022/10/28 03:25:11;;;;;;;9.02;6.50;;;11.60;99.90;;;;;;4784076;30;20146;-75
2022/10/28 03:27:40;;;;;;;8.20;6.07;;;11.60;99.90;;;;;;4785313;29;20063;-75
2022/10/28 03:30:08;;;;;;;7.88;7.07;;;11.60;99.90;;;;;;4785522;29;20066;-74
2022/10/28 03:32:35;;;;;;;14.18;7.15;;;11.70;99.90;;;;;;4784499;30;20044;-74
2022/10/28 03:35:02;;;;;;;13.40;8.57;;;11.70;99.90;;;;;;4784485;29;20508;-74
2022/10/28 03:37:32;;;;;;;9.80;6.80;;;11.70;99.90;;;;;;4784289;30;20047;-75
2022/10/28 03:40:01;;;;;;;10.85;7.32;;;11.70;99.90;;;;;;4814157;29;20058;-75
2022/10/28 03:42:32;;;;;;;10.90;7.82;;;11.70;99.90;;;;;;4784065;30;20070;-76
2022/10/28 03:45:00;;;;;;;9.65;7.72;;;11.80;99.90;;;;;;4812767;29;20055;-74
2022/10/28 03:47:27;;;;;;;12.48;7.35;;;11.70;99.90;;;;;;4784091;30;20138;-74
2022/10/28 03:49:54;;;;;;;8.73;6.90;;;11.80;99.90;;;;;;4785700;29;20055;-74
2022/10/28 03:52:21;;;;;;;9.25;6.63;;;11.70;99.90;;;;;;4784006;30;20417;-74
2022/10/28 03:54:50;;;;;;;9.23;7.68;;;11.80;99.90;;;;;;4785595;29;20051;-74
2022/10/28 03:57:17;;;;;;;12.27;7.25;;;11.80;99.90;;;;;;4788636;29;20090;-73
2022/10/28 03:59:44;;;;;;;11.15;7.55;;;11.80;99.90;;;;;;4788261;29;20070;-74
2022/10/28 04:02:11;;;;;;;12.38;8.32;;;11.80;99.90;;;;;;4787477;30;20447;-76
2022/10/28 04:04:38;;;;;;;11.30;7.28;;;11.80;99.90;;;;;;4781105;29;20123;-76
2022/10/28 04:07:06;;;;;;;9.35;7.13;;;11.80;99.90;;;;;;4779609;30;20100;-75
2022/10/28 04:09:33;;;;;;;13.98;7.57;;;11.70;99.90;;;;;;4787118;30;20051;-76
2022/10/28 04:12:01;;;;;;;12.70;8.00;;;11.70;99.90;;;;;;4787809;29;20047;-76
2022/10/28 04:14:29;;;;;;;12.73;7.38;;;11.70;99.90;;;;;;4787220;30;20501;-76
2022/10/28 04:16:56;;;;;;;14.50;9.02;;;11.70;99.90;;;;;;4788936;29;20607;-77
2022/10/28 04:19:23;;;;;;;11.23;7.97;;;11.80;99.90;;;;;;4787911;29;20100;-75
2022/10/28 04:21:50;;;;;;;10.50;8.18;;;11.80;99.90;;;;;;4788785;29;20703;-75
2022/10/28 04:24:17;;;;;;;12.95;8.00;;;11.80;99.90;;;;;;4787172;30;20529;-78
2022/10/28 04:26:45;;;;;;;12.85;8.50;;;11.80;99.90;;;;;;4788439;29;20527;-76
2022/10/28 04:29:13;;;;;;;14.32;8.65;;;11.80;99.90;;;;;;4787529;29;20120;-76
2022/10/28 04:31:41;;;;;;;21.17;9.32;;;11.80;99.90;;;;;;4794208;29;20150;-76
2022/10/28 04:34:08;;;;;;;17.23;9.68;;;11.80;99.90;;;;;;4790615;29;20079;-76
2022/10/28 04:36:35;;;;;;;15.00;9.20;;;11.80;99.90;;;;;;4806718;29;20062;-76
2022/10/28 04:39:03;;;;;;;16.58;10.30;;;11.80;99.90;;;;;;4788915;29;20051;-76
2022/10/28 04:41:30;;;;;;;14.52;8.60;;;11.80;99.90;;;;;;4817076;29;20507;-77
2022/10/28 04:43:57;;;;;;;16.05;9.18;;;11.90;99.90;;;;;;4787659;29;20094;-76
2022/10/28 04:46:26;;;;;;;17.92;9.45;;;11.90;99.90;;;;;;4773017;30;20059;-74
2022/10/28 04:48:53;;;;;;;19.00;11.52;;;11.90;99.90;;;;;;4787549;30;20082;-75
2022/10/28 04:51:20;;;;;;;20.85;11.45;;;11.90;99.90;;;;;;4788237;29;20059;-77
2022/10/28 04:53:47;;;;;;;22.40;11.70;;;11.90;99.90;;;;;;4787904;29;20051;-76
2022/10/28 04:56:15;;;;;;;25.48;11.90;;;11.90;99.90;;;;;;4785601;29;20496;-74
2022/10/28 04:58:42;;;;;;;18.33;11.40;;;11.90;99.90;;;;;;4786055;30;20055;-74
2022/10/28 05:01:10;;;;;;;26.02;14.07;;;11.90;99.90;;;;;;4786102;30;20051;-75
2022/10/28 05:03:38;;;;;;;21.10;10.10;;;11.90;99.90;;;;;;4787593;29;20055;-76
2022/10/28 05:06:06;;;;;;;19.35;9.88;;;11.90;99.90;;;;;;4785159;29;20146;-76
2022/10/28 05:08:33;;;;;;;16.02;9.93;;;12.00;99.90;;;;;;4786724;29;20097;-76
2022/10/28 05:11:00;;;;;;;15.73;8.98;;;11.90;99.90;;;;;;4786088;30;20151;-75
2022/10/28 05:13:27;;;;;;;15.95;9.95;;;11.90;99.90;;;;;;4815195;29;20059;-75
2022/10/28 05:15:55;;;;;;;17.60;10.30;;;11.90;99.90;;;;;;4787900;30;20073;-75
2022/10/28 05:18:22;;;;;;;15.05;10.35;;;11.80;99.90;;;;;;4787632;29;20054;-75
2022/10/28 05:20:53;;;;;;;16.23;10.50;;;11.80;99.90;;;;;;4787534;29;20089;-75
2022/10/28 05:23:21;;;;;;;18.08;9.75;;;11.80;99.90;;;;;;4784821;30;20060;-75
2022/10/28 05:25:48;;;;;;;20.60;10.57;;;11.80;99.90;;;;;;4791789;29;20146;-75
2022/10/28 05:28:16;;;;;;;16.33;10.02;;;11.80;99.90;;;;;;4781472;29;20058;-76
2022/10/28 05:30:44;;;;;;;18.30;10.55;;;11.80;99.90;;;;;;4787138;29;20055;-75
2022/10/28 05:33:12;;;;;;;22.77;10.52;;;11.80;99.90;;;;;;4784998;30;20489;-77
2022/10/28 05:35:39;;;;;;;17.13;10.00;;;11.80;99.90;;;;;;4785475;30;20071;-76
2022/10/28 05:38:08;;;;;;;17.33;8.98;;;11.80;99.90;;;;;;4787082;29;20067;-76
2022/10/28 05:40:35;;;;;;;16.23;9.52;;;11.80;99.90;;;;;;4784796;30;20413;-77
2022/10/28 05:43:03;;;;;;;20.50;9.00;;;11.80;99.90;;;;;;4815631;29;20055;-75
2022/10/28 05:45:31;;;;;;;20.48;10.25;;;11.80;99.90;;;;;;4787139;29;20134;-75
2022/10/28 05:47:58;;;;;;;19.23;9.10;;;11.80;99.90;;;;;;4786762;29;20601;-75
2022/10/28 05:50:26;;;;;;;14.15;9.10;;;11.80;99.90;;;;;;4766501;30;20150;-76
2022/10/28 05:52:54;;;;;;;14.43;8.00;;;11.80;99.90;;;;;;4778989;30;20529;-77
2022/10/28 05:55:26;;;;;;;15.30;8.57;;;11.80;99.90;;;;;;4782540;29;20051;-75
2022/10/28 05:57:54;;;;;;;16.08;8.82;;;11.80;99.90;;;;;;4783255;29;20529;-75
2022/10/28 06:00:24;;;;;;;18.88;8.07;;;11.80;99.90;;;;;;4783616;29;20501;-82
2022/10/28 06:02:51;;;;;;;16.13;7.78;;;11.90;99.90;;;;;;4785055;29;20403;-76
2022/10/28 06:05:20;;;;;;;18.48;7.75;;;11.80;99.90;;;;;;4785322;30;20051;-77
2022/10/28 06:07:49;;;;;;;15.75;7.88;;;11.90;99.90;;;;;;4785080;29;20050;-80
2022/10/28 06:10:24;;;;;;;12.80;7.20;;;12.00;99.90;;;;;;4768218;30;20048;-72
2022/10/28 06:12:59;;;;;;;15.27;7.18;;;12.00;99.90;;;;;;4772851;29;20121;-77
2022/10/28 06:15:26;;;;;;;20.50;7.65;;;12.00;99.90;;;;;;4768251;30;20509;-77
2022/10/28 06:17:54;;;;;;;14.13;7.35;;;12.00;99.90;;;;;;4785640;29;20082;-77
2022/10/28 06:20:22;;;;;;;12.27;7.13;;;12.00;99.90;;;;;;4787393;29;20055;-81
2022/10/28 06:22:51;;;;;;;14.75;7.60;;;12.00;99.90;;;;;;4767256;30;20135;-80
2022/10/28 06:25:22;;;;;;;16.20;7.72;;;12.00;99.90;;;;;;4786904;30;20051;-78
2022/10/28 06:27:54;;;;;;;15.00;8.55;;;12.00;99.90;;;;;;4787362;29;20115;-76
2022/10/28 06:30:22;;;;;;;17.77;7.50;;;12.10;99.90;;;;;;4790797;29;20055;-81
2022/10/28 06:32:49;;;;;;;18.00;7.55;;;12.10;99.90;;;;;;4785361;29;20051;-77
2022/10/28 06:35:17;;;;;;;19.25;7.38;;;12.10;99.90;;;;;;4797082;29;20584;-78
2022/10/28 06:37:45;;;;;;;13.95;6.72;;;12.10;99.90;;;;;;4785309;30;20085;-77
2022/10/28 06:40:12;;;;;;;12.70;6.78;;;12.10;99.90;;;;;;4766035;30;20058;-79
2022/10/28 06:42:39;;;;;;;14.85;6.90;;;12.20;99.90;;;;;;4796023;29;20055;-81
2022/10/28 06:45:12;;;;;;;15.30;7.07;;;12.20;99.90;;;;;;4789335;29;20063;-77
2022/10/28 06:47:39;;;;;;;15.23;7.07;;;12.20;99.90;;;;;;4788882;29;20078;-80
2022/10/28 06:50:07;;;;;;;14.68;6.57;;;12.20;99.90;;;;;;4784198;30;20044;-77
2022/10/28 06:52:34;;;;;;;11.85;6.30;;;12.20;99.90;;;;;;4779906;30;20051;-77
2022/10/28 06:55:05;;;;;;;16.45;7.13;;;12.30;99.90;;;;;;4779329;29;20100;-76
2022/10/28 06:57:32;;;;;;;16.15;6.78;;;12.30;99.90;;;;;;4774405;30;20091;-79
2022/10/28 06:59:59;;;;;;;18.90;7.00;;;12.40;99.90;;;;;;4808250;29;20059;-80
2022/10/28 07:02:28;;;;;;;20.48;8.18;;;12.40;99.90;;;;;;4784684;29;20538;-79
2022/10/28 07:04:55;;;;;;;18.55;6.68;;;12.40;99.90;;;;;;4786595;29;20089;-80
2022/10/28 07:07:22;;;;;;;15.80;6.70;;;12.50;99.90;;;;;;4782258;29;20071;-80
2022/10/28 07:09:49;;;;;;;12.55;5.80;;;12.50;99.90;;;;;;4777561;30;20146;-81
2022/10/28 07:12:17;;;;;;;16.95;7.07;;;12.50;99.90;;;;;;4779512;30;20089;-80
2022/10/28 07:14:44;;;;;;;11.63;6.30;;;12.50;99.90;;;;;;4816367;29;20419;-78
2022/10/28 07:17:11;;;;;;;15.57;6.20;;;12.50;99.90;;;;;;4787599;29;20577;-78
2022/10/28 07:19:40;;;;;;;20.90;7.38;;;12.50;99.90;;;;;;4786890;29;20055;-76
2022/10/28 07:22:07;;;;;;;14.48;7.15;;;12.40;99.90;;;;;;4775234;29;20056;-78
2022/10/28 07:24:34;;;;;;;18.77;7.20;;;12.40;99.90;;;;;;4774327;29;20075;-78
2022/10/28 07:27:01;;;;;;;14.65;6.85;;;12.40;99.90;;;;;;4782859;29;20051;-77
2022/10/28 07:29:29;;;;;;;16.75;7.13;;;12.40;99.90;;;;;;4798579;29;20043;-76
2022/10/28 07:31:57;;;;;;;13.52;6.97;;;12.30;99.90;;;;;;4789474;29;20541;-79
2022/10/28 07:34:24;;;;;;;16.17;6.60;;;12.40;99.90;;;;;;4786799;29;20062;-82
2022/10/28 07:36:53;;;;;;;15.20;7.22;;;12.30;99.90;;;;;;4790571;29;20059;-82
2022/10/28 07:39:23;;;;;;;21.50;6.90;;;12.30;99.90;;;;;;4789532;29;20051;-82
2022/10/28 07:41:51;;;;;;;17.77;7.43;;;12.30;99.90;;;;;;4773682;30;20108;-81
2022/10/28 07:44:18;;;;;;;17.42;6.85;;;12.40;99.90;;;;;;4790150;29;20050;-75
2022/10/28 07:46:45;;;;;;;17.50;6.32;;;12.50;99.90;;;;;;4784731;29;20043;-75
2022/10/28 07:49:12;;;;;;;18.90;6.18;;;12.60;99.90;;;;;;4783870;29;20051;-77
2022/10/28 07:51:39;;;;;;;17.52;6.72;;;12.60;99.90;;;;;;4784363;29;20055;-77
2022/10/28 07:54:08;;;;;;;16.38;6.80;;;12.50;99.90;;;;;;4780817;29;20189;-76
2022/10/28 07:56:35;;;;;;;14.10;6.32;;;12.60;99.90;;;;;;4767982;29;20059;-76
2022/10/28 07:59:02;;;;;;;17.75;6.35;;;12.60;99.90;;;;;;4782868;29;20154;-81
2022/10/28 08:01:29;;;;;;;17.58;6.75;;;12.60;99.90;;;;;;4785585;29;20083;-79
2022/10/28 08:03:57;;;;;;;19.90;6.28;;;12.60;99.90;;;;;;4785780;29;20426;-79
2022/10/28 08:06:24;;;;;;;18.67;6.78;;;12.60;99.90;;;;;;4783938;29;20083;-80
2022/10/28 08:08:55;;;;;;;21.00;7.03;;;12.50;99.90;;;;;;4787503;29;20055;-78
2022/10/28 08:11:24;;;;;;;22.33;7.72;;;12.50;99.90;;;;;;4784438;29;20055;-79
2022/10/28 08:13:54;;;;;;;14.35;6.40;;;12.50;99.90;;;;;;4814049;29;20055;-77
2022/10/28 08:16:21;;;;;;;20.63;7.05;;;12.50;99.90;;;;;;4784060;29;20142;-77
2022/10/28 08:18:48;;;;;;;14.25;7.10;;;12.50;99.90;;;;;;4784332;29;20047;-78
2022/10/28 08:21:16;;;;;;;17.88;6.78;;;12.40;99.90;;;;;;4782877;29;20440;-76
2022/10/28 08:23:45;;;;;;;18.23;7.15;;;12.40;99.90;;;;;;4782921;29;20080;-78
2022/10/28 08:26:13;;;;;;;20.58;7.85;;;12.40;99.90;;;;;;4811644;29;20039;-79
2022/10/28 08:28:43;;;;;;;14.82;6.90;;;12.40;99.90;;;;;;4786426;29;20121;-79
2022/10/28 08:31:11;;;;;;;20.85;7.68;;;12.50;99.90;;;;;;4782142;29;20086;-80
2022/10/28 08:33:41;;;;;;;21.90;7.68;;;12.60;99.90;;;;;;4783426;29;20596;-80
2022/10/28 08:36:11;;;;;;;20.77;7.43;;;12.60;99.90;;;;;;4783558;29;20513;-82
2022/10/28 08:38:38;;;;;;;15.50;6.32;;;12.60;99.90;;;;;;4787181;29;20059;-81
2022/10/28 08:41:16;;;;;;;18.33;7.78;;;12.70;99.90;;;;;;4784645;29;20058;-79
2022/10/28 08:43:57;;;;;;;13.20;6.38;;;12.70;99.90;;;;;;4786913;29;20063;-80
2022/10/28 08:46:42;;;;;;;25.05;7.45;;;12.80;99.90;;;;;;4785186;29;20079;-79
2022/10/28 08:49:14;;;;;;;18.80;6.55;;;12.90;99.90;;;;;;4783971;29;20059;-79
2022/10/28 08:51:46;;;;;;;19.38;6.25;;;13.00;99.90;;;;;;4788293;29;20590;-77
2022/10/28 08:54:17;;;;;;;16.53;6.07;;;13.00;99.90;;;;;;4783856;29;20517;-78
2022/10/28 08:56:47;;;;;;;17.98;6.63;;;13.00;99.90;;;;;;4783219;29;20312;-78
2022/10/28 08:59:21;;;;;;;15.55;5.75;;;13.00;99.90;;;;;;4780713;29;20145;-84
2022/10/28 09:01:51;;;;;;;20.27;6.63;;;13.00;99.90;;;;;;4786375;29;20474;-87
2022/10/28 09:04:27;;;;;;;20.48;5.72;;;13.00;99.90;;;;;;4787215;29;20058;-82
2022/10/28 09:06:54;;;;;;;25.75;7.00;;;12.90;99.90;;;;;;4792038;29;20547;-83
2022/10/28 09:09:24;;;;;;;14.95;6.55;;;13.00;99.90;;;;;;4792604;29;20055;-82
2022/10/28 09:12:09;;;;;;;19.58;6.40;;;13.00;99.90;;;;;;4800452;29;20066;-84
2022/10/28 09:14:55;;;;;;;17.65;6.20;;;13.00;99.90;;;;;;4798096;29;20062;-82
2022/10/28 09:17:33;;;;;;;19.10;5.43;;;13.10;99.90;;;;;;4790377;29;20090;-82
2022/10/28 09:20:12;;;;;;;15.98;7.78;;;13.10;99.90;;;;;;4792820;29;20124;-81
2022/10/28 09:22:45;;;;;;;15.77;5.25;;;13.10;99.90;;;;;;4787517;29;20051;-81
2022/10/28 09:25:17;;;;;;;;;;;13.10;99.90;;;;;;4784688;29;20073;-77
2022/10/28 09:27:57;;;;;;;15.35;5.68;;;13.10;99.90;;;;;;4782991;29;19936;-82
2022/10/28 09:30:45;;;;;;;17.75;6.07;;;13.10;99.90;;;;;;4793898;29;20721;-77
2022/10/28 09:33:30;;;;;;;13.65;5.45;;;13.20;99.90;;;;;;4782826;29;20538;-78
2022/10/28 09:35:58;;;;;;;23.77;6.60;;;13.30;99.90;;;;;;4813803;29;20113;-78
2022/10/28 09:38:28;;;;;;;14.30;6.07;;;13.30;99.90;;;;;;4796306;29;20039;-77
2022/10/28 09:41:02;;;;;;;18.55;5.80;;;13.30;99.90;;;;;;4782469;29;20070;-79
2022/10/28 09:43:32;;;;;;;15.73;5.85;;;13.30;99.90;;;;;;4783424;29;20074;-82
2022/10/28 09:46:07;;;;;;;22.02;6.50;;;13.20;99.90;;;;;;4781936;29;20138;-78
2022/10/28 09:48:39;;;;;;;13.02;5.07;;;13.20;99.90;;;;;;4782955;29;20081;-77
2022/10/28 09:51:07;;;;;;;22.65;5.72;;;13.20;99.90;;;;;;4782202;29;20067;-83
2022/10/28 09:53:43;;;;;;;13.98;5.63;;;13.20;99.90;;;;;;4810385;29;20124;-78
2022/10/28 09:56:11;;;;;;;17.13;5.15;;;13.30;99.90;;;;;;4782111;29;20055;-80
2022/10/28 09:58:42;;;;;;;14.82;5.70;;;13.30;99.90;;;;;;4786994;29;20047;-79
2022/10/28 10:01:11;;;;;;;21.23;6.30;;;13.30;99.90;;;;;;4787026;29;20128;-81
2022/10/28 10:03:41;;;;;;;17.02;6.10;;;13.30;99.90;;;;;;4790871;29;20047;-80
2022/10/28 10:06:20;;;;;;;19.17;6.45;;;13.20;99.90;;;;;;4783693;29;20047;-80
2022/10/28 10:08:50;;;;;;;18.77;6.40;;;13.20;99.90;;;;;;4781241;29;20461;-80
2022/10/28 10:11:30;;;;;;;17.50;5.95;;;13.20;99.90;;;;;;4779385;29;20070;-79
2022/10/28 10:14:05;;;;;;;11.93;5.68;;;13.20;99.90;;;;;;4810319;29;20051;-80
2022/10/28 10:16:42;;;;;;;19.98;6.30;;;13.30;99.90;;;;;;4782213;29;20447;-81
2022/10/28 10:19:11;;;;;;;17.52;6.10;;;13.40;99.90;;;;;;4783959;29;20059;-82
2022/10/28 10:21:45;;;;;;;18.10;6.30;;;13.40;99.90;;;;;;4789054;29;20420;-83
2022/10/28 10:24:29;;;;;;;14.27;5.38;;;13.40;99.90;;;;;;4781426;29;20426;-82
2022/10/28 10:26:58;;;;;;;14.27;5.22;;;13.40;99.90;;;;;;4784656;29;20051;-84
2022/10/28 10:29:28;;;;;;;17.35;5.97;;;13.50;99.90;;;;;;4784784;29;20047;-82
2022/10/28 10:32:26;;;;;;;17.13;4.85;;;13.50;99.90;;;;;;4783629;29;20061;-84
2022/10/28 10:35:00;;;;;;;18.33;5.28;;;13.50;99.90;;;;;;4762620;29;20066;-82
2022/10/28 10:37:29;;;;;;;20.88;5.68;;;13.50;99.90;;;;;;4782787;29;20062;-80
2022/10/28 10:40:06;;;;;;;20.20;5.50;;;13.40;99.90;;;;;;4782824;29;20560;-82
2022/10/28 10:42:33;;;;;;;19.67;5.72;;;13.40;99.90;;;;;;4786678;29;20146;-81
2022/10/28 10:45:10;;;;;;;17.50;5.07;;;13.30;99.90;;;;;;4785370;29;20051;-84
2022/10/28 10:47:39;;;;;;;15.40;5.47;;;13.30;99.90;;;;;;4784910;29;20051;-82
2022/10/28 10:50:27;;;;;;;14.43;5.20;;;13.20;99.90;;;;;;4764169;29;20086;-80
2022/10/28 10:52:57;;;;;;;13.90;5.30;;;13.10;99.90;;;;;;4783346;29;20070;-79
2022/10/28 10:58:46;;;;;;;18.70;5.32;;;13.10;99.90;;;;;;4766656;29;20104;-85
2022/10/28 11:01:19;;;;;;;15.73;5.22;;;13.00;99.90;;;;;;4781057;29;20059;-83
2022/10/28 11:03:49;;;;;;;;;;;13.00;99.90;;;;;;4784546;29;20059;-82
2022/10/28 11:06:21;;;;;;;17.52;5.65;;;12.90;99.90;;;;;;4781615;29;19930;-82
2022/10/28 11:08:54;;;;;;;21.70;5.25;;;12.90;99.90;;;;;;4804994;29;20055;-82
2022/10/28 11:11:23;;;;;;;;;;;12.90;99.90;;;;;;4791177;29;20079;-79
2022/10/28 11:14:03;;;;;;;19.90;7.57;;;12.90;99.90;;;;;;4778274;29;19990;-79
2022/10/28 11:16:49;;;;;;;16.85;5.57;;;12.90;99.90;;;;;;4778526;29;20098;-81
2022/10/28 11:19:24;;;;;;;14.30;4.97;;;13.00;99.90;;;;;;4762521;29;20156;-80
2022/10/28 11:22:12;;;;;;;12.88;5.85;;;12.90;99.90;;;;;;4775695;29;20051;-79
2022/10/28 11:25:11;;;;;;;18.55;4.93;;;12.90;99.90;;;;;;4778858;29;20045;-79
2022/10/28 11:27:50;;;;;;;17.02;5.90;;;12.90;99.90;;;;;;4769679;29;20052;-80
2022/10/28 11:30:21;;;;;;;19.95;6.28;;;12.90;99.90;;;;;;4779329;29;20398;-80
2022/10/28 11:33:00;;;;;;;15.95;5.38;;;12.90;99.90;;;;;;4808076;24;20063;-76
2022/10/28 11:35:43;;;;;;;18.90;7.05;;;12.80;99.90;;;;;;4774341;29;20052;-78
2022/10/28 11:38:22;;;;;;;18.70;6.40;;;12.90;99.90;;;;;;4753339;30;20588;-82
2022/10/28 11:41:08;;;;;;;16.90;6.13;;;12.90;99.90;;;;;;4745050;30;20048;-89
2022/10/28 11:43:47;;;;;;;19.13;6.25;;;12.90;99.90;;;;;;4753858;30;20083;-86
2022/10/28 11:46:28;;;;;;;22.63;5.68;;;12.80;99.90;;;;;;4747540;30;20064;-86
2022/10/28 11:49:24;;;;;;;17.30;5.85;;;12.80;99.90;;;;;;4748123;30;20055;-86
2022/10/28 11:51:58;;;;;;;17.58;6.00;;;12.80;99.90;;;;;;4746698;30;20056;-77
2022/10/28 11:54:41;;;;;;;15.30;5.78;;;12.80;99.90;;;;;;4742424;30;20569;-76
2022/10/28 11:57:13;;;;;;;16.20;6.25;;;12.90;99.90;;;;;;4739686;30;20044;-80
2022/10/28 12:00:06;;;;;;;18.00;5.40;;;12.90;99.90;;;;;;4742289;30;20063;-79
2022/10/28 12:02:50;;;;;;;23.00;6.25;;;12.90;99.90;;;;;;4741588;30;20060;-76
2022/10/28 12:05:20;;;;;;;19.98;5.93;;;12.90;99.90;;;;;;4742597;30;20070;-79
2022/10/28 12:08:10;;;;;;;20.60;5.53;;;12.90;99.90;;;;;;4738867;30;20062;-81
2022/10/28 12:10:52;;;;;;;20.70;6.22;;;12.90;99.90;;;;;;4740167;30;20060;-76
2022/10/28 12:13:28;;;;;;;19.45;5.38;;;12.90;99.90;;;;;;4741032;30;20052;-81
2022/10/28 12:16:00;;;;;;;17.92;5.05;;;12.80;99.90;;;;;;4742392;30;20056;-81
2022/10/28 12:18:33;;;;;;;18.53;6.07;;;12.80;99.90;;;;;;4748217;30;20060;-81
2022/10/28 12:21:11;;;;;;;19.25;5.85;;;12.80;99.90;;;;;;4729421;30;20436;-85
2022/10/28 12:23:42;;;;;;;19.77;6.20;;;12.80;99.90;;;;;;4750576;30;20106;-82
2022/10/28 12:26:13;;;;;;;18.30;5.32;;;12.80;99.90;;;;;;4747146;30;20100;-85
2022/10/28 12:28:44;;;;;;;13.75;4.47;;;12.80;99.90;;;;;;4745171;30;20056;-85
2022/10/28 12:31:20;;;;;;;20.38;5.15;;;12.80;99.90;;;;;;4742008;30;20056;-84
2022/10/28 12:33:51;;;;;;;18.83;5.20;;;12.80;99.90;;;;;;4741450;30;20056;-85
2022/10/28 12:36:27;;;;;;;12.45;5.05;;;12.70;99.90;;;;;;4746105;30;20594;-83
2022/10/28 12:39:00;;;;;;;17.95;4.95;;;12.60;99.90;;;;;;4746318;30;20060;-84
2022/10/28 12:41:41;;;;;;;13.05;4.07;;;12.60;99.90;;;;;;4728904;30;20055;-84
2022/10/28 12:44:11;;;;;;;13.73;4.88;;;12.60;99.90;;;;;;4746835;30;20071;-85
2022/10/28 12:46:48;;;;;;;15.48;5.80;;;12.60;99.90;;;;;;4744823;30;20052;-85
2022/10/28 12:49:37;;;;;;;19.52;5.72;;;12.60;99.90;;;;;;4744856;30;20060;-86
2022/10/28 12:52:28;;;;;;;18.10;6.10;;;12.60;99.90;;;;;;4753730;30;20405;-86
2022/10/28 12:55:19;;;;;;;16.60;5.72;;;12.70;99.90;;;;;;4741869;30;20080;-80
2022/10/28 12:57:51;;;;;;;24.08;5.35;;;12.70;99.90;;;;;;4746387;30;20422;-80
2022/10/28 13:00:23;;;;;;;18.60;5.10;;;12.70;99.90;;;;;;4743734;30;20399;-82
2022/10/28 13:02:57;;;;;;;21.85;5.57;;;12.70;99.90;;;;;;4748438;30;20052;-83
2022/10/28 13:05:29;;;;;;;21.80;5.30;;;12.70;99.90;;;;;;4747618;30;20052;-84